Time;durP1;ratioP1;P1;durP2;ratioP2;P2;SDS_P1;SDS_P2;PMS_P1;PMS_P2;Temp;Humidity;BMP_temperature;BMP_pressure;BME280_temperature;BME280_humidity;BME280_pressure;Samples;Min_cycle;Max_cycle;Signal;HPM_P1;HPM_P2
2022/04/22 00:01:35;;;;;;;13.73;7.82;;;;;;;9.66;74.16;100618.63;5054780;28;20393;-77
2022/04/22 00:04:01;;;;;;;13.95;7.28;;;;;;;9.60;74.66;100608.84;5036433;28;20032;-78
2022/04/22 00:06:27;;;;;;;13.98;7.32;;;;;;;9.60;74.58;100606.25;5043671;28;20091;-78
2022/04/22 00:08:52;;;;;;;12.68;7.53;;;;;;;9.58;74.96;100610.00;5023868;28;20044;-78
2022/04/22 00:11:30;;;;;;;16.88;7.85;;;;;;;9.52;74.94;100606.22;5040099;28;20040;-77
2022/04/22 00:13:57;;;;;;;11.55;7.60;;;;;;;9.49;75.43;100601.34;5049770;28;20151;-77
2022/04/22 00:16:27;;;;;;;14.43;7.85;;;;;;;9.42;75.71;100603.75;5025221;28;20116;-76
2022/04/22 00:18:54;;;;;;;14.02;7.85;;;;;;;9.36;76.08;100601.75;5055236;28;20024;-76
2022/04/22 00:21:20;;;;;;;14.38;8.18;;;;;;;9.36;76.01;100599.16;5039998;28;20425;-76
2022/04/22 00:23:45;;;;;;;16.83;8.32;;;;;;;9.35;76.26;100598.38;5037040;28;20475;-77
2022/04/22 00:26:11;;;;;;;14.73;8.00;;;;;;;9.29;76.84;100599.00;5037224;28;20025;-77
2022/04/22 00:28:37;;;;;;;13.07;7.50;;;;;;;9.29;76.50;100599.00;5042223;28;20028;-78
2022/04/22 00:31:02;;;;;;;14.75;7.80;;;;;;;9.31;76.36;100597.06;5043601;28;20051;-77
2022/04/22 00:33:28;;;;;;;15.63;8.20;;;;;;;9.32;76.34;100603.03;5058075;28;20082;-78
2022/04/22 00:35:53;;;;;;;16.40;9.10;;;;;;;9.34;76.28;100598.53;5038520;28;20032;-78
2022/04/22 00:38:19;;;;;;;14.25;7.68;;;;;;;9.25;76.69;100597.69;5035156;28;21057;-76
2022/04/22 00:40:44;;;;;;;14.07;8.45;;;;;;;9.22;76.95;100602.34;5040421;28;20352;-77
2022/04/22 00:43:18;;;;;;;11.23;7.75;;;;;;;9.17;77.16;100595.00;5036727;28;20467;-77
2022/04/22 00:45:44;;;;;;;16.58;8.60;;;;;;;9.15;77.45;100597.78;5040869;28;20481;-77
2022/04/22 00:48:10;;;;;;;13.77;8.35;;;;;;;9.09;77.83;100598.34;5026854;28;20690;-77
2022/04/22 00:50:36;;;;;;;15.23;8.65;;;;;;;9.12;77.56;100592.91;5022540;28;20032;-76
2022/04/22 00:53:02;;;;;;;14.38;9.02;;;;;;;9.08;77.77;100599.34;5021944;28;20043;-76
2022/04/22 00:55:29;;;;;;;16.25;9.75;;;;;;;9.11;78.08;100595.63;5042245;28;20028;-77
2022/04/22 00:57:55;;;;;;;14.50;8.80;;;;;;;9.08;78.33;100599.34;5058786;28;20111;-76
2022/04/22 01:00:21;;;;;;;15.88;9.68;;;;;;;9.04;78.28;100589.44;5024576;28;20037;-76
2022/04/22 01:02:47;;;;;;;16.05;8.80;;;;;;;8.99;78.23;100589.09;5054480;28;20047;-76
2022/04/22 01:10:41;;;;;;;14.15;9.20;;;;;;;8.89;79.21;100587.41;5062437;28;20036;-76
2022/04/22 01:13:07;;;;;;;20.92;9.68;;;;;;;8.88;79.23;100579.78;5045368;28;20086;-77
2022/04/22 01:15:34;;;;;;;18.13;10.30;;;;;;;8.90;79.29;100576.06;5039207;28;20095;-76
2022/04/22 01:18:00;;;;;;;15.63;9.10;;;;;;;8.85;79.28;100574.91;5057744;28;20386;-77
2022/04/22 01:20:26;;;;;;;16.42;10.27;;;;;;;8.83;79.49;100579.41;5042070;28;20044;-77
2022/04/22 01:22:52;;;;;;;20.73;9.55;;;;;;;8.81;79.71;100576.97;5040589;28;20032;-76
2022/04/22 01:25:17;;;;;;;17.05;9.23;;;;;;;8.73;80.28;100571.75;5052074;28;20078;-76
2022/04/22 01:27:44;;;;;;;15.70;9.52;;;;;;;8.72;80.30;100567.53;5056753;28;20032;-76
2022/04/22 01:30:10;;;;;;;16.85;9.73;;;;;;;8.74;80.41;100566.44;5021423;28;20044;-76
2022/04/22 01:32:35;;;;;;;17.00;9.80;;;;;;;8.70;80.44;100566.88;5038029;28;20072;-77
2022/04/22 01:35:01;;;;;;;17.52;10.70;;;;;;;8.68;80.82;100556.69;5039479;28;20078;-76
2022/04/22 01:37:27;;;;;;;17.98;10.57;;;;;;;8.67;81.17;100564.59;5059668;28;20470;-76
2022/04/22 01:39:52;;;;;;;14.63;10.05;;;;;;;8.69;80.62;100557.50;5043796;28;20044;-77
2022/04/22 01:42:18;;;;;;;15.23;9.52;;;;;;;8.79;80.41;100560.00;5059802;28;20036;-76
2022/04/22 01:44:44;;;;;;;16.77;10.45;;;;;;;8.73;80.91;100562.22;5043903;28;20029;-77
2022/04/22 01:47:10;;;;;;;16.23;9.73;;;;;;;8.66;80.87;100555.22;5026039;28;20454;-76
2022/04/22 01:49:35;;;;;;;17.67;10.77;;;;;;;8.68;81.01;100558.44;5041711;28;20127;-76
2022/04/22 01:52:01;;;;;;;17.48;10.13;;;;;;;8.74;80.91;100555.28;5042911;28;20495;-77
2022/04/22 01:54:26;;;;;;;14.98;9.40;;;;;;;8.69;81.42;100560.09;5060750;28;20044;-76
2022/04/22 01:56:52;;;;;;;16.27;10.10;;;;;;;8.64;81.16;100549.38;5041131;28;20473;-77
2022/04/22 01:59:17;;;;;;;15.60;9.98;;;;;;;8.61;81.43;100554.84;5059676;28;20037;-75
2022/04/22 02:01:43;;;;;;;15.40;9.10;;;;;;;8.57;81.76;100552.56;5040041;28;20032;-76
2022/04/22 02:04:08;;;;;;;15.95;9.77;;;;;;;8.60;81.78;100561.78;5042494;28;20037;-76
2022/04/22 02:06:34;;;;;;;17.17;8.82;;;;;;;8.58;81.62;100563.72;5039804;28;20501;-77
2022/04/22 02:08:59;;;;;;;17.05;9.98;;;;;;;8.58;81.66;100558.53;5042247;28;20017;-76
2022/04/22 02:11:24;;;;;;;14.80;9.07;;;;;;;8.63;81.80;100563.28;5057794;28;20101;-76
2022/04/22 02:13:50;;;;;;;16.67;8.98;;;;;;;8.58;81.54;100559.34;5040946;28;20244;-76
2022/04/22 02:16:15;;;;;;;18.45;9.82;;;;;;;8.53;82.14;100559.00;5055381;28;20028;-77
2022/04/22 02:18:42;;;;;;;20.08;9.75;;;;;;;8.48;82.15;100550.06;5040889;28;20033;-77
2022/04/22 02:21:09;;;;;;;16.67;9.52;;;;;;;8.50;82.16;100555.91;5060148;28;20032;-76
2022/04/22 02:23:35;;;;;;;15.43;9.20;;;;;;;8.48;82.18;100552.66;5057761;28;20032;-77
2022/04/22 02:26:01;;;;;;;17.40;9.52;;;;;;;8.48;82.44;100542.31;5055405;28;20062;-76
2022/04/22 02:28:33;;;;;;;15.68;9.60;;;;;;;8.47;82.19;100548.44;5044488;28;20872;-76
2022/04/22 02:31:04;;;;;;;13.88;8.25;;;;;;;8.43;82.47;100544.53;5056750;28;20039;-77
2022/04/22 02:33:31;;;;;;;14.73;9.00;;;;;;;8.33;82.79;100537.63;5025480;28;20041;-76
2022/04/22 02:35:57;;;;;;;14.15;9.35;;;;;;;8.29;83.18;100545.81;5038127;28;20448;-76
2022/04/22 02:38:22;;;;;;;17.20;10.10;;;;;;;8.31;83.18;100541.31;5043155;28;20110;-76
2022/04/22 02:46:16;;;;;;;17.27;10.82;;;;;;;8.30;83.40;100537.09;5058790;28;20028;-78
2022/04/22 02:48:41;;;;;;;18.98;9.90;;;;;;;8.28;83.45;100542.41;5042169;28;20081;-76
2022/04/22 02:51:07;;;;;;;22.73;10.95;;;;;;;8.23;83.97;100544.66;5022640;28;20098;-76
2022/04/22 02:53:32;;;;;;;17.80;10.52;;;;;;;8.28;83.83;100552.75;5039685;28;20043;-76
2022/04/22 02:55:58;;;;;;;19.67;10.60;;;;;;;8.32;83.61;100540.34;5026859;28;20047;-76
2022/04/22 02:58:24;;;;;;;14.68;9.73;;;;;;;8.26;84.04;100536.59;5035945;28;21653;-76
2022/04/22 03:00:50;;;;;;;18.10;10.15;;;;;;;8.23;84.16;100542.06;5026429;28;20037;-76
2022/04/22 03:03:15;;;;;;;20.73;11.50;;;;;;;8.22;83.94;100540.44;5057757;28;20563;-76
2022/04/22 03:05:41;;;;;;;20.10;10.52;;;;;;;8.17;84.55;100532.28;5044164;28;20847;-77
2022/04/22 03:08:08;;;;;;;19.67;11.55;;;;;;;8.13;84.47;100531.78;5058665;28;20029;-77
2022/04/22 03:10:34;;;;;;;21.67;11.68;;;;;;;8.14;84.82;100533.41;5029366;28;20027;-76
2022/04/22 03:12:59;;;;;;;18.23;11.45;;;;;;;8.19;84.67;100538.13;5058146;28;20059;-77
2022/04/22 03:15:25;;;;;;;22.70;12.30;;;;;;;8.08;85.21;100531.41;5037828;28;20718;-76
2022/04/22 03:17:52;;;;;;;24.33;12.48;;;;;;;8.11;84.80;100530.31;5039004;28;20027;-76
2022/04/22 03:20:17;;;;;;;21.20;11.55;;;;;;;8.11;84.93;100522.56;5039930;28;20041;-76
2022/04/22 03:22:44;;;;;;;23.00;12.90;;;;;;;8.28;84.53;100526.91;5056114;28;20028;-76
2022/04/22 03:25:10;;;;;;;22.55;12.07;;;;;;;8.15;84.83;100526.47;5056414;28;20109;-77
2022/04/22 03:27:35;;;;;;;18.83;11.32;;;;;;;8.05;85.04;100526.53;5040126;28;20036;-76
2022/04/22 03:30:02;;;;;;;24.10;12.80;;;;;;;8.03;85.28;100527.66;5042353;28;20037;-76
2022/04/22 03:32:28;;;;;;;23.73;12.45;;;;;;;8.04;85.44;100524.09;5040479;28;20170;-76
2022/04/22 03:34:54;;;;;;;21.02;11.35;;;;;;;8.06;85.13;100529.91;5056897;28;20330;-76
2022/04/22 03:37:19;;;;;;;20.92;12.00;;;;;;;8.10;85.21;100518.34;5040254;28;20456;-76
2022/04/22 03:39:44;;;;;;;28.45;13.30;;;;;;;8.08;85.31;100517.66;5058481;28;20025;-76
2022/04/22 03:42:10;;;;;;;23.60;12.85;;;;;;;8.01;85.50;100512.28;5023718;28;20097;-76
2022/04/22 03:44:36;;;;;;;22.50;12.75;;;;;;;7.96;85.83;100511.91;5041362;28;20503;-76
2022/04/22 03:47:03;;;;;;;22.30;12.75;;;;;;;7.95;86.01;100511.09;5023755;28;20044;-76
2022/04/22 03:49:31;;;;;;;24.77;13.68;;;;;;;7.95;86.19;100518.84;5023916;28;20214;-76
2022/04/22 03:51:56;;;;;;;24.77;14.32;;;;;;;7.91;86.17;100522.69;5057170;28;20037;-76
2022/04/22 03:54:24;;;;;;;25.83;12.70;;;;;;;7.90;86.46;100520.25;5056677;28;20035;-76
2022/04/22 03:59:38;;;;;;;26.33;13.52;;;;;;;7.95;86.58;100511.09;5022069;28;20044;-77
2022/04/22 04:02:04;;;;;;;26.17;14.15;;;;;;;7.91;86.62;100514.94;5039724;28;20034;-76
2022/04/22 04:04:30;;;;;;;24.15;14.07;;;;;;;7.87;86.86;100516.16;5023521;28;20036;-77
2022/04/22 04:06:55;;;;;;;25.63;14.57;;;;;;;8.05;86.16;100515.41;5040661;28;20029;-76
2022/04/22 04:17:40;;;;;;;27.45;15.35;;;;;;;7.85;87.02;100512.91;5040441;28;20028;-77
2022/04/22 04:25:36;;;;;;;33.13;14.95;;;;;;;7.89;87.11;100501.38;5056029;28;20032;-76
2022/04/22 04:28:02;;;;;;;31.40;15.57;;;;;;;7.88;87.38;100501.50;5057584;28;21270;-76
2022/04/22 04:30:28;;;;;;;26.90;15.88;;;;;;;7.88;87.46;100506.69;5056690;28;20085;-77
2022/04/22 04:32:53;;;;;;;30.98;15.65;;;;;;;7.83;87.90;100501.13;5020893;28;20067;-76
2022/04/22 04:35:19;;;;;;;30.27;15.57;;;;;;;7.83;87.79;100501.13;5040971;28;20035;-76
2022/04/22 04:37:44;;;;;;;31.98;15.45;;;;;;;7.79;87.88;100500.59;5038750;28;20476;-77
2022/04/22 04:40:10;;;;;;;33.83;17.00;;;;;;;7.83;87.86;100503.72;5040624;28;20047;-76
2022/04/22 04:42:36;;;;;;;30.80;16.13;;;;;;;7.79;87.75;100501.41;5055400;28;20043;-75
2022/04/22 04:45:03;;;;;;;30.38;16.67;;;;;;;7.80;87.73;100504.81;5035611;28;20464;-76
2022/04/22 04:47:28;;;;;;;32.72;16.20;;;;;;;7.75;88.16;100504.44;5038306;28;20033;-77
2022/04/22 04:49:54;;;;;;;31.15;16.65;;;;;;;7.85;87.67;100502.59;5036618;28;20027;-76
2022/04/22 04:52:19;;;;;;;31.77;16.13;;;;;;;7.86;88.19;100506.00;5043108;28;20579;-76
2022/04/22 04:54:47;;;;;;;32.55;16.75;;;;;;;7.90;87.87;100497.81;5059141;28;20036;-76
2022/04/22 04:57:13;;;;;;;30.50;16.63;;;;;;;7.88;87.73;100499.72;5057980;28;20492;-76
2022/04/22 04:59:38;;;;;;;34.85;16.50;;;;;;;7.87;88.08;100498.09;5056083;28;20043;-77
2022/04/22 05:02:04;;;;;;;34.17;17.25;;;;;;;7.83;88.15;100504.50;5038365;28;20475;-76
2022/04/22 05:04:29;;;;;;;32.70;17.00;;;;;;;7.85;88.23;100500.00;5056774;28;20075;-77
2022/04/22 05:06:54;;;;;;;29.92;16.35;;;;;;;7.94;87.99;100514.63;5023424;28;20036;-76
2022/04/22 05:09:20;;;;;;;29.83;16.70;;;;;;;8.08;87.85;100505.59;5041419;28;20025;-76
2022/04/22 05:11:46;;;;;;;37.50;18.80;;;;;;;8.03;87.49;100507.00;5041290;28;20036;-76
2022/04/22 05:14:13;;;;;;;36.95;18.70;;;;;;;8.07;87.68;100503.16;5021467;28;20213;-76
2022/04/22 05:16:38;;;;;;;31.38;17.67;;;;;;;8.06;88.00;100499.75;5024713;28;20085;-77
2022/04/22 05:19:04;;;;;;;32.38;16.83;;;;;;;8.06;88.07;100512.69;5054169;28;20748;-76
2022/04/22 05:21:29;;;;;;;32.67;17.25;;;;;;;8.10;87.83;100502.84;5039736;28;20424;-76
2022/04/22 05:23:55;;;;;;;35.00;17.75;;;;;;;8.17;87.82;100507.28;5055861;28;20024;-76
2022/04/22 05:26:23;;;;;;;31.83;17.23;;;;;;;8.30;87.41;100501.75;5039006;28;20385;-76
2022/04/22 05:28:49;;;;;;;33.15;18.52;;;;;;;8.25;87.50;100497.97;5034183;28;20056;-76
2022/04/22 05:33:58;;;;;;;35.83;18.25;;;;;;;8.28;87.51;100498.50;5056992;28;20028;-76
2022/04/22 05:36:23;;;;;;;39.22;18.42;;;;;;;8.42;87.26;100497.22;5039774;28;20501;-76
2022/04/22 05:38:52;;;;;;;37.45;19.05;;;;;;;8.46;86.93;100498.53;5040467;28;20032;-77
2022/04/22 05:41:18;;;;;;;33.28;17.15;;;;;;;8.53;86.88;100499.56;5054969;28;20025;-77
2022/04/22 05:43:44;;;;;;;35.05;17.38;;;;;;;8.56;87.06;100499.25;5022404;28;20900;-77
2022/04/22 05:46:10;;;;;;;34.83;18.13;;;;;;;8.67;86.11;100499.97;5034996;28;21584;-77
2022/04/22 05:48:35;;;;;;;34.30;17.73;;;;;;;8.75;85.57;100492.28;5054080;28;20025;-76
2022/04/22 05:51:01;;;;;;;32.08;17.30;;;;;;;8.84;85.61;100495.72;5038162;28;20474;-76
2022/04/22 05:53:26;;;;;;;37.08;18.42;;;;;;;8.99;84.79;100488.22;5023515;28;20102;-76
2022/04/22 05:55:52;;;;;;;36.58;19.05;;;;;;;9.16;84.37;100489.94;5024356;28;20113;-77
2022/04/22 05:58:17;;;;;;;33.47;18.23;;;;;;;9.41;83.06;100493.44;5038489;28;20531;-76
2022/04/22 06:00:43;;;;;;;32.45;17.25;;;;;;;9.72;81.89;100488.53;5037649;28;20047;-77
2022/04/22 06:03:08;;;;;;;35.55;17.67;;;;;;;9.95;80.02;100493.13;5057715;28;20028;-76
2022/04/22 06:05:34;;;;;;;32.92;17.50;;;;;;;10.14;79.14;100492.81;5056562;28;20642;-76
2022/04/22 06:10:49;;;;;;;30.10;16.35;;;;;;;10.48;77.48;100483.31;5039935;28;20493;-76
2022/04/22 06:13:15;;;;;;;32.67;17.73;;;;;;;10.41;77.20;100480.53;5039652;28;20106;-77
2022/04/22 06:15:40;;;;;;;32.53;16.90;;;;;;;10.36;77.21;100482.00;5054807;28;20397;-76
2022/04/22 06:18:06;;;;;;;28.42;16.30;;;;;;;10.37;77.30;100483.63;5038095;28;20044;-76
2022/04/22 06:20:31;;;;;;;34.65;18.20;;;;;;;10.21;77.53;100484.38;5036388;28;20036;-77
2022/04/22 06:22:58;;;;;;;30.40;17.33;;;;;;;10.22;78.18;100480.84;5041958;28;20090;-76
2022/04/22 06:25:23;;;;;;;29.73;16.40;;;;;;;10.20;78.96;100485.38;5060460;28;20032;-76
2022/04/22 06:27:49;;;;;;;31.58;17.58;;;;;;;10.11;78.44;100481.94;5045342;28;21130;-76
2022/04/22 06:30:17;;;;;;;30.27;16.98;;;;;;;10.05;79.36;100478.22;5059615;28;20040;-77
2022/04/22 06:32:45;;;;;;;31.20;16.45;;;;;;;10.04;80.26;100479.22;5042358;28;20036;-77
2022/04/22 06:35:12;;;;;;;33.08;17.95;;;;;;;10.12;80.44;100483.59;5058991;28;20037;-77
2022/04/22 06:37:40;;;;;;;33.85;17.88;;;;;;;10.19;80.33;100484.56;5061346;28;20391;-77
2022/04/22 06:45:47;;;;;;;34.95;18.50;;;;;;;10.46;79.05;100469.69;5058736;28;20486;-76
2022/04/22 06:48:14;;;;;;;46.30;23.23;;;;;;;10.56;79.00;100470.31;5040845;28;20064;-76
2022/04/22 06:50:40;;;;;;;34.08;19.13;;;;;;;10.67;78.11;100464.81;5039773;28;20075;-76
2022/04/22 06:53:06;;;;;;;33.20;18.48;;;;;;;10.87;78.01;100469.66;5043812;28;20079;-76
2022/04/22 06:55:32;;;;;;;32.05;17.55;;;;;;;10.93;76.52;100463.78;5039036;28;20485;-76
2022/04/22 06:58:00;;;;;;;30.50;18.25;;;;;;;11.26;76.79;100466.25;5044475;28;20107;-76
2022/04/22 07:00:26;;;;;;;32.63;19.38;;;;;;;11.27;75.36;100463.50;5060970;28;20062;-76
2022/04/22 07:02:51;;;;;;;31.15;18.02;;;;;;;11.07;75.77;100462.28;5042780;28;20036;-77
2022/04/22 07:05:17;;;;;;;29.38;18.02;;;;;;;11.47;74.92;100461.31;5024867;28;20026;-77
2022/04/22 07:07:43;;;;;;;31.27;18.25;;;;;;;12.36;72.11;100460.13;5041184;28;20477;-77
2022/04/22 07:10:09;;;;;;;30.73;17.52;;;;;;;13.13;68.77;100465.03;5058673;28;20029;-76
2022/04/22 07:12:34;;;;;;;31.55;17.35;;;;;;;13.75;66.73;100453.34;5039109;28;20440;-76
2022/04/22 07:15:03;;;;;;;27.40;16.42;;;;;;;12.89;67.48;100460.91;5040027;28;20134;-76
2022/04/22 07:17:34;;;;;;;28.05;16.33;;;;;;;12.57;69.50;100467.22;5056227;28;20170;-77
2022/04/22 07:20:10;;;;;;;29.92;17.65;;;;;;;11.91;71.70;100459.94;5041705;28;20044;-78
2022/04/22 07:22:40;;;;;;;30.70;17.40;;;;;;;11.60;73.62;100463.38;5044757;28;20492;-76
2022/04/22 07:25:08;;;;;;;27.13;17.60;;;;;;;11.47;74.10;100456.13;5044060;28;20106;-76
2022/04/22 07:27:36;;;;;;;31.80;18.17;;;;;;;11.29;75.03;100452.97;5026752;28;20303;-76
2022/04/22 07:30:05;;;;;;;30.33;17.58;;;;;;;11.24;75.39;100453.44;5055095;28;20111;-77
2022/04/22 07:32:31;;;;;;;29.85;18.40;;;;;;;11.02;76.75;100449.81;5040294;28;20068;-77
2022/04/22 07:34:57;;;;;;;29.65;17.42;;;;;;;11.07;77.29;100438.91;5058415;28;20074;-76
2022/04/22 07:37:23;;;;;;;32.42;17.90;;;;;;;11.04;76.78;100437.47;5042655;28;20040;-76
2022/04/22 07:39:49;;;;;;;29.88;18.45;;;;;;;11.02;76.52;100439.44;5043730;28;20032;-76
2022/04/22 07:42:17;;;;;;;32.85;18.60;;;;;;;11.14;76.76;100439.88;5040359;28;20040;-76
2022/04/22 07:47:37;;;;;;;30.33;18.13;;;;;;;11.09;76.75;100439.56;5040113;28;20040;-76
2022/04/22 07:50:05;;;;;;;28.50;17.27;;;;;;;11.05;76.62;100436.50;5040754;28;20301;-77
2022/04/22 07:52:32;;;;;;;36.95;17.60;;;;;;;11.01;77.60;100432.63;5041769;28;20638;-76
2022/04/22 07:54:58;;;;;;;27.15;17.27;;;;;;;11.08;77.26;100430.19;5042326;28;20047;-76
2022/04/22 07:57:24;;;;;;;28.35;17.10;;;;;;;11.25;76.16;100433.50;5042282;28;20115;-78
2022/04/22 07:59:49;;;;;;;32.67;17.52;;;;;;;11.20;76.47;100433.22;5052602;28;20478;-76
2022/04/22 08:02:16;;;;;;;24.92;15.75;;;;;;;11.21;75.26;100440.03;5039822;28;20056;-77
2022/04/22 08:04:41;;;;;;;29.17;17.58;;;;;;;11.19;75.58;100444.53;5040205;28;20036;-76
2022/04/22 08:07:08;;;;;;;34.42;17.10;;;;;;;11.40;75.32;100437.00;5041516;28;20410;-77
2022/04/22 08:09:34;;;;;;;28.10;15.93;;;;;;;12.27;73.06;100431.56;5042350;28;20036;-76
2022/04/22 08:12:00;;;;;;;23.67;15.27;;;;;;;12.41;70.66;100432.59;5066361;28;20040;-77
2022/04/22 08:14:27;;;;;;;24.73;14.10;;;;;;;12.29;70.25;100431.41;5033064;28;20039;-75
2022/04/22 08:16:56;;;;;;;24.65;15.00;;;;;;;12.25;70.55;100436.13;5066585;28;20113;-76
2022/04/22 08:19:22;;;;;;;28.20;15.60;;;;;;;12.17;70.10;100436.22;5047174;28;20097;-79
2022/04/22 08:21:47;;;;;;;25.05;14.50;;;;;;;12.26;70.88;100429.13;5060667;28;20036;-76
2022/04/22 08:24:13;;;;;;;24.25;14.70;;;;;;;12.24;70.60;100438.91;5026767;28;20043;-76
2022/04/22 08:26:39;;;;;;;20.85;12.45;;;;;;;12.24;70.40;100433.72;5042773;28;20028;-76
2022/04/22 08:29:04;;;;;;;21.25;13.07;;;;;;;12.17;68.13;100431.00;5038387;28;20501;-76
2022/04/22 08:31:30;;;;;;;20.92;12.00;;;;;;;12.06;67.65;100428.84;5034754;28;20040;-77
2022/04/22 08:33:57;;;;;;;22.58;12.88;;;;;;;12.00;68.45;100424.34;5041246;28;20165;-76
2022/04/22 08:36:23;;;;;;;21.70;12.32;;;;;;;11.96;68.56;100428.25;5040832;28;20040;-76
2022/04/22 08:38:49;;;;;;;18.17;11.65;;;;;;;11.90;68.99;100423.75;5039907;28;20033;-77
2022/04/22 08:41:17;;;;;;;19.45;12.38;;;;;;;11.94;70.06;100427.63;5040351;28;20039;-76
2022/04/22 08:43:42;;;;;;;17.50;10.45;;;;;;;12.03;68.86;100421.38;5041738;28;20035;-75
2022/04/22 08:49:58;;;;;;;18.80;10.43;;;;;;;11.97;67.59;100419.47;5038409;28;20409;-76
2022/04/22 08:51:45;;;;;;;15.02;9.40;;;;;;;12.30;65.66;100430.44;5007396;28;20525;-77
2022/04/22 08:54:13;;;;;;;13.15;8.32;;;;;;;13.12;63.22;100410.53;5026615;28;20119;-76
2022/04/22 08:56:39;;;;;;;12.82;8.43;;;;;;;14.13;61.92;100408.78;5020614;28;20129;-76
2022/04/22 08:59:05;;;;;;;12.50;8.55;;;;;;;15.16;58.44;100405.56;5056471;28;20286;-76
2022/04/22 09:01:31;;;;;;;12.77;7.93;;;;;;;15.57;56.07;100402.84;5017870;28;20041;-77
2022/04/22 09:03:57;;;;;;;21.73;8.63;;;;;;;15.42;55.50;100404.84;5035424;28;20028;-75
2022/04/22 09:06:25;;;;;;;13.95;9.13;;;;;;;14.95;56.80;100407.28;5055563;28;20137;-76
2022/04/22 09:08:51;;;;;;;14.02;7.85;;;;;;;14.92;57.44;100401.66;5040328;28;20100;-77
2022/04/22 09:11:17;;;;;;;16.33;8.82;;;;;;;14.21;58.71;100403.41;5038543;28;20432;-76
2022/04/22 09:13:43;;;;;;;13.55;7.97;;;;;;;14.11;59.10;100400.34;5037471;28;20090;-76
2022/04/22 09:16:18;;;;;;;11.90;8.13;;;;;;;13.85;59.09;100397.50;5054103;28;20056;-76
2022/04/22 09:18:45;;;;;;;12.15;7.38;;;;;;;14.25;58.36;100393.41;5036987;28;20417;-77
2022/04/22 09:21:18;;;;;;;12.93;8.90;;;;;;;14.33;58.31;100395.84;5037646;28;20029;-76
2022/04/22 09:23:45;;;;;;;15.57;7.45;;;;;;;14.11;57.00;100387.28;5051790;28;20029;-77
2022/04/22 09:26:22;;;;;;;14.77;9.07;;;;;;;14.45;57.09;100390.13;5033430;28;20055;-76
2022/04/22 09:28:57;;;;;;;16.25;7.50;;;;;;;15.14;54.83;100377.06;5057559;28;20036;-76
2022/04/22 09:31:24;;;;;;;13.32;7.65;;;;;;;15.69;52.61;100373.53;5054484;28;20080;-77
2022/04/22 09:33:50;;;;;;;15.63;6.80;;;;;;;15.56;51.99;100372.53;5035385;28;20033;-78
2022/04/22 09:45:06;;;;;;;11.55;6.75;;;;;;;15.22;52.26;100367.41;5035442;28;20417;-76
2022/04/22 09:47:33;;;;;;;11.18;6.78;;;;;;;14.78;53.75;100372.06;5020315;28;20402;-77
2022/04/22 09:50:00;;;;;;;13.43;7.47;;;;;;;14.69;54.97;100368.00;5030751;28;20036;-76
2022/04/22 09:52:27;;;;;;;11.65;7.35;;;;;;;14.59;54.87;100363.94;5033315;28;20124;-76
2022/04/22 09:55:06;;;;;;;10.07;6.53;;;;;;;14.37;55.23;100358.00;5018714;28;20033;-76
2022/04/22 09:57:48;;;;;;;13.20;6.07;;;;;;;14.38;56.01;100353.56;5020296;28;20036;-77
2022/04/22 10:00:16;;;;;;;10.00;6.22;;;;;;;14.68;55.78;100353.38;5041001;28;20041;-76
2022/04/22 10:02:42;;;;;;;10.00;5.78;;;;;;;14.88;54.00;100341.22;5039464;28;20038;-78
2022/04/22 10:05:09;;;;;;;14.35;5.60;;;;;;;15.17;52.93;100339.28;5040346;28;20048;-78
2022/04/22 10:07:36;;;;;;;10.07;6.10;;;;;;;15.20;51.45;100338.91;5043399;28;20094;-76
2022/04/22 10:10:03;;;;;;;14.73;6.72;;;;;;;15.42;51.05;100334.31;5041079;28;20047;-75
2022/04/22 10:12:30;;;;;;;18.23;6.82;;;;;;;15.69;50.25;100332.53;5062382;28;20294;-77
2022/04/22 10:14:57;;;;;;;13.00;6.30;;;;;;;15.61;50.26;100324.88;5024843;28;20029;-76
2022/04/22 10:17:23;;;;;;;19.92;6.53;;;;;;;15.71;50.08;100322.69;5025259;28;20044;-77
2022/04/22 10:19:49;;;;;;;10.82;6.82;;;;;;;15.56;50.71;100317.66;5060173;28;20418;-76
2022/04/22 10:22:17;;;;;;;8.48;5.93;;;;;;;15.76;50.83;100320.31;5037926;28;20272;-75
2022/04/22 10:24:44;;;;;;;11.48;6.55;;;;;;;15.86;52.43;100321.69;5055003;28;20397;-77
2022/04/22 10:27:10;;;;;;;12.02;6.55;;;;;;;15.77;52.33;100319.28;5039099;28;20028;-75
2022/04/22 10:29:40;;;;;;;11.20;7.53;;;;;;;15.69;51.00;100322.06;5055710;28;20056;-77
2022/04/22 10:32:06;;;;;;;14.63;7.40;;;;;;;15.87;51.86;100323.31;5024334;28;20040;-77
2022/04/22 10:34:43;;;;;;;11.45;7.25;;;;;;;15.97;51.70;100318.44;5042524;28;20499;-75
2022/04/22 10:37:19;;;;;;;9.50;6.03;;;;;;;15.81;51.49;100321.50;5026361;28;20037;-76
2022/04/22 10:39:51;;;;;;;10.55;6.28;;;;;;;15.79;52.70;100313.84;5059035;28;20040;-77
2022/04/22 10:42:16;;;;;;;14.20;5.93;;;;;;;15.94;52.44;100316.25;5038453;28;20033;-76
2022/04/22 10:47:45;;;;;;;10.70;5.65;;;;;;;15.65;49.01;100310.44;5059609;28;20041;-77
2022/04/22 10:50:39;;;;;;;9.13;6.35;;;;;;;15.49;52.54;100316.84;5038661;28;20036;-76
2022/04/22 10:53:08;;;;;;;9.93;6.72;;;;;;;15.23;53.49;100316.78;5061094;28;20549;-78
2022/04/22 10:55:34;;;;;;;12.05;6.88;;;;;;;14.97;53.82;100302.66;5058979;28;20115;-76
2022/04/22 10:58:12;;;;;;;10.82;7.32;;;;;;;14.95;54.25;100320.34;5041116;28;20461;-76
2022/04/22 11:00:41;;;;;;;11.38;7.28;;;;;;;14.93;54.48;100322.34;5056638;28;20087;-77
2022/04/22 11:03:16;;;;;;;12.27;7.38;;;;;;;15.51;53.70;100311.41;5057374;28;20024;-77
2022/04/22 11:05:50;;;;;;;12.80;6.68;;;;;;;16.12;53.00;100305.97;5025177;28;20188;-76
2022/04/22 11:08:18;;;;;;;9.18;6.55;;;;;;;16.66;53.29;100295.34;5038191;28;20115;-76
2022/04/22 11:10:44;;;;;;;11.65;7.22;;;;;;;16.87;51.81;100297.66;5040101;28;20114;-76
2022/04/22 11:13:33;;;;;;;11.25;6.88;;;;;;;16.79;51.14;100294.47;5036726;28;20485;-76
2022/04/22 11:15:58;;;;;;;12.93;7.63;;;;;;;16.62;50.76;100288.94;5057422;28;20085;-76
2022/04/22 11:18:24;;;;;;;12.63;8.10;;;;;;;16.01;51.38;100288.31;5040033;28;20029;-77
2022/04/22 11:21:17;;;;;;;14.43;7.72;;;;;;;15.83;52.24;100280.28;5057742;28;20032;-76
2022/04/22 11:23:46;;;;;;;13.98;7.75;;;;;;;15.83;52.31;100277.66;5053096;28;20044;-76
2022/04/22 11:26:14;;;;;;;13.70;7.55;;;;;;;15.67;51.34;100277.03;5053459;28;20118;-77
2022/04/22 11:28:40;;;;;;;11.25;7.55;;;;;;;15.67;51.87;100271.81;5039514;28;20036;-77
2022/04/22 11:31:08;;;;;;;10.60;6.47;;;;;;;15.78;52.15;100270.41;5025510;28;20024;-78
2022/04/22 11:33:54;;;;;;;11.38;6.95;;;;;;;16.01;52.82;100267.38;5043229;28;20040;-77
2022/04/22 11:36:21;;;;;;;12.63;7.65;;;;;;;16.19;51.23;100261.50;5038541;28;20036;-77
2022/04/22 11:38:51;;;;;;;12.15;7.30;;;;;;;16.19;50.76;100268.53;5055920;28;20039;-76
2022/04/22 11:41:17;;;;;;;12.02;8.43;;;;;;;16.11;50.59;100266.94;5062297;28;20032;-75
2022/04/22 11:43:44;;;;;;;11.15;7.57;;;;;;;16.12;50.84;100264.13;5045772;28;20393;-76
2022/04/22 11:46:12;;;;;;;12.23;8.23;;;;;;;16.51;50.33;100257.16;5041818;28;20033;-76
2022/04/22 11:48:49;;;;;;;13.85;7.88;;;;;;;16.18;49.83;100259.91;5041483;28;20059;-76
2022/04/22 11:51:16;;;;;;;12.80;7.82;;;;;;;16.35;50.71;100257.63;5056321;28;20468;-76
2022/04/22 11:53:52;;;;;;;13.23;8.43;;;;;;;16.38;50.10;100259.81;5025198;28;20052;-77
2022/04/22 11:56:19;;;;;;;14.35;8.23;;;;;;;16.35;50.72;100244.56;5040223;28;20057;-75
2022/04/22 11:58:47;;;;;;;12.45;7.25;;;;;;;16.44;50.94;100248.50;5056081;28;20039;-76
2022/04/22 12:06:42;;;;;;;24.35;7.05;;;;;;;16.17;51.10;100254.88;5054912;28;20037;-76
2022/04/22 12:09:07;;;;;;;9.20;6.22;;;;;;;16.15;51.70;100252.44;5063729;28;20043;-76
2022/04/22 12:11:41;;;;;;;12.95;7.03;;;;;;;16.28;50.30;100241.94;5031688;28;20084;-75
2022/04/22 12:14:07;;;;;;;12.60;6.85;;;;;;;16.35;49.98;100241.94;5062810;28;20502;-76
2022/04/22 12:16:32;;;;;;;10.77;5.88;;;;;;;16.29;50.34;100230.50;5040514;28;20107;-76
2022/04/22 12:19:00;;;;;;;8.73;5.65;;;;;;;16.34;48.90;100227.22;5059186;28;20091;-76